Time;durP1;ratioP1;P1;durP2;ratioP2;P2;SDS_P1;SDS_P2;PMS_P1;PMS_P2;Temp;Humidity;BMP_temperature;BMP_pressure;BME280_temperature;BME280_humidity;BME280_pressure;Samples;Min_cycle;Max_cycle;Signal;HPM_P1;HPM_P2
2022/07/03 00:00:26;;;;;;;9.70;1.90;;;;;;;21.87;54.56;100660.63;5032550;28;20213;-66
2022/07/03 00:02:53;;;;;;;5.67;1.90;;;;;;;21.88;54.92;100667.69;5032310;28;20219;-66
2022/07/03 00:05:21;;;;;;;7.03;2.23;;;;;;;21.90;54.76;100659.38;5046299;28;20236;-66
2022/07/03 00:07:49;;;;;;;6.73;2.23;;;;;;;21.84;54.80;100652.13;5032610;28;20205;-65
2022/07/03 00:10:17;;;;;;;5.07;1.97;;;;;;;21.83;54.50;100658.56;5032673;28;20212;-65
2022/07/03 00:12:45;;;;;;;4.00;1.40;;;;;;;21.78;54.83;100654.66;5031505;28;20216;-65
2022/07/03 00:15:13;;;;;;;6.03;1.50;;;;;;;21.76;54.90;100655.91;5031123;28;20232;-66
2022/07/03 00:17:42;;;;;;;3.27;1.47;;;;;;;21.73;54.52;100661.75;5032012;28;20574;-65
2022/07/03 00:20:11;;;;;;;5.43;1.30;;;;;;;21.72;54.24;100665.50;5031947;28;20595;-65
2022/07/03 00:22:44;;;;;;;3.37;1.77;;;;;;;21.72;54.43;100665.50;5031146;28;20204;-65
2022/07/03 00:25:14;;;;;;;4.17;1.80;;;;;;;21.73;54.84;100659.03;5030024;28;20204;-65
2022/07/03 00:27:45;;;;;;;3.53;1.43;;;;;;;21.73;54.56;100656.34;5029232;28;20205;-65
2022/07/03 00:30:13;;;;;;;2.53;1.23;;;;;;;21.70;54.43;100659.50;5031371;28;20228;-65
2022/07/03 00:32:43;;;;;;;3.20;1.30;;;;;;;21.62;54.55;100659.75;5031482;28;20956;-65
2022/07/03 00:35:16;;;;;;;3.60;1.30;;;;;;;21.58;54.37;100651.25;5031961;28;20793;-65
2022/07/03 00:37:44;;;;;;;6.10;1.50;;;;;;;21.44;54.63;100662.31;5031045;28;20204;-65
2022/07/03 00:40:13;;;;;;;5.97;1.67;;;;;;;21.36;55.14;100661.53;5031760;28;20227;-65
2022/07/03 00:42:41;;;;;;;3.83;1.50;;;;;;;21.31;55.10;100658.63;5030940;28;20216;-65
2022/07/03 00:45:09;;;;;;;3.97;1.63;;;;;;;21.23;55.31;100652.66;5031226;28;20201;-65
2022/07/03 00:47:37;;;;;;;3.27;1.47;;;;;;;21.19;55.44;100657.66;5030629;28;20295;-66
2022/07/03 00:50:09;;;;;;;3.17;1.40;;;;;;;21.14;55.27;100649.31;5031445;28;20251;-66
2022/07/03 00:52:38;;;;;;;3.27;1.70;;;;;;;21.12;54.80;100648.69;5027921;28;20216;-67
2022/07/03 00:55:09;;;;;;;4.70;1.60;;;;;;;21.11;55.02;100652.44;5030756;28;20228;-65
2022/07/03 00:57:46;;;;;;;3.47;1.60;;;;;;;21.11;55.13;100655.13;5031069;28;20272;-65
2022/07/03 01:00:14;;;;;;;2.00;1.13;;;;;;;21.16;55.15;100660.72;5031027;28;20209;-66
2022/07/03 01:02:50;;;;;;;4.83;1.77;;;;;;;21.21;54.96;100655.56;5030563;28;20292;-66
2022/07/03 01:05:27;;;;;;;2.93;1.60;;;;;;;21.26;54.79;100660.31;5031184;28;20223;-65
2022/07/03 01:08:05;;;;;;;5.10;1.30;;;;;;;21.23;54.57;100664.25;5031272;28;20212;-66
2022/07/03 01:10:44;;;;;;;4.27;1.30;;;;;;;21.24;54.99;100663.22;5031653;28;20204;-65
2022/07/03 01:13:18;;;;;;;3.17;1.47;;;;;;;21.19;54.82;100668.44;5028944;28;20215;-65
2022/07/03 01:15:57;;;;;;;2.63;1.30;;;;;;;21.08;55.63;100663.66;5031099;28;20231;-65
2022/07/03 01:18:35;;;;;;;2.17;1.30;;;;;;;20.97;55.67;100665.13;5031025;28;20219;-65
2022/07/03 01:21:10;;;;;;;2.57;1.40;;;;;;;20.88;56.11;100668.28;5030322;28;20258;-65
2022/07/03 01:24:04;;;;;;;2.73;1.43;;;;;;;20.77;56.87;100661.66;5020014;28;20213;-66
2022/07/03 01:26:36;;;;;;;2.53;1.33;;;;;;;20.79;56.72;100664.13;5028059;28;20288;-65
2022/07/03 01:29:08;;;;;;;2.40;1.50;;;;;;;20.84;56.97;100656.28;5030989;28;20567;-65
2022/07/03 01:31:39;;;;;;;4.13;1.30;;;;;;;20.79;56.50;100654.19;5030315;28;20228;-66
2022/07/03 01:34:14;;;;;;;2.37;1.20;;;;;;;20.74;56.68;100654.00;5030157;28;20208;-66
2022/07/03 01:36:43;;;;;;;10.00;1.83;;;;;;;20.63;57.15;100650.06;5030637;28;20279;-66
2022/07/03 01:39:12;;;;;;;5.20;1.77;;;;;;;20.55;57.46;100647.59;5030326;28;20722;-65
2022/07/03 01:41:45;;;;;;;5.83;1.43;;;;;;;20.59;57.38;100642.59;5030249;28;20200;-65
2022/07/03 01:44:15;;;;;;;3.17;1.27;;;;;;;20.58;57.29;100641.78;5023384;28;20212;-65
2022/07/03 01:46:45;;;;;;;4.50;1.80;;;;;;;20.64;57.53;100646.34;5037425;28;20200;-65
2022/07/03 01:49:15;;;;;;;5.17;1.30;;;;;;;20.63;57.34;100638.47;5030516;28;20228;-66
2022/07/03 01:51:44;;;;;;;5.30;1.40;;;;;;;20.69;57.34;100639.47;5031697;28;20578;-66
2022/07/03 01:54:12;;;;;;;4.03;1.20;;;;;;;20.72;57.11;100641.78;5040582;28;20205;-65
2022/07/03 01:56:40;;;;;;;8.67;1.20;;;;;;;20.79;56.99;100638.00;5029772;28;20262;-65
2022/07/03 01:59:09;;;;;;;2.40;1.30;;;;;;;20.85;56.97;100642.56;5030014;28;20201;-66
2022/07/03 02:01:45;;;;;;;3.13;1.30;;;;;;;20.88;56.25;100652.94;5030911;28;20216;-65
2022/07/03 02:04:21;;;;;;;2.13;1.30;;;;;;;20.85;56.34;100647.13;5031073;28;20242;-65
2022/07/03 02:07:00;;;;;;;3.73;1.13;;;;;;;20.86;56.58;100643.38;5030633;28;20204;-66
2022/07/03 02:09:40;;;;;;;3.07;1.20;;;;;;;20.86;56.38;100648.78;5029296;28;20215;-66
2022/07/03 02:12:13;;;;;;;3.73;1.63;;;;;;;20.83;56.53;100641.97;5022621;28;20200;-65
2022/07/03 02:14:55;;;;;;;4.30;1.40;;;;;;;20.83;56.26;100639.25;5016659;28;20219;-66
2022/07/03 02:17:27;;;;;;;2.47;1.10;;;;;;;20.79;55.88;100632.63;5030254;28;20204;-65
2022/07/03 02:19:58;;;;;;;3.03;1.50;;;;;;;20.80;55.86;100633.47;5030177;28;20299;-65
2022/07/03 02:22:29;;;;;;;3.00;1.40;;;;;;;20.81;55.65;100640.50;5029555;28;20212;-65
2022/07/03 02:25:04;;;;;;;2.77;1.70;;;;;;;20.81;55.71;100640.50;5030189;28;20209;-65
2022/07/03 02:27:39;;;;;;;4.00;1.27;;;;;;;20.77;55.60;100647.34;5029999;28;20295;-66
2022/07/03 02:30:10;;;;;;;1.30;0.90;;;;;;;20.74;55.72;100645.91;5017465;28;20243;-67
2022/07/03 02:32:43;;;;;;;2.00;1.30;;;;;;;20.69;56.02;100642.19;5029166;28;20319;-66
2022/07/03 02:35:19;;;;;;;6.10;1.40;;;;;;;20.61;56.87;100649.44;5017230;28;20561;-65
2022/07/03 02:37:54;;;;;;;2.00;1.30;;;;;;;20.54;57.05;100648.63;5029897;28;20568;-65
2022/07/03 02:40:28;;;;;;;4.23;1.60;;;;;;;20.50;57.54;100647.38;5029695;28;20602;-65
2022/07/03 02:43:04;;;;;;;9.03;1.50;;;;;;;20.41;57.67;100651.31;5029420;28;20212;-67
2022/07/03 02:45:43;;;;;;;2.67;1.20;;;;;;;20.40;57.56;100644.31;5030356;28;20209;-65
2022/07/03 02:48:20;;;;;;;4.93;1.73;;;;;;;20.43;57.30;100651.94;5022939;28;20216;-66
2022/07/03 02:50:53;;;;;;;3.93;1.40;;;;;;;20.42;58.17;100650.28;5030218;28;20209;-66
2022/07/03 02:53:29;;;;;;;3.87;1.30;;;;;;;20.43;58.16;100649.25;5033011;28;20205;-66
2022/07/03 02:56:06;;;;;;;2.57;1.47;;;;;;;20.48;57.82;100657.56;5032818;28;20271;-66
2022/07/03 02:58:47;;;;;;;2.33;1.50;;;;;;;20.44;57.65;100656.31;5031943;28;20295;-66
2022/07/03 03:01:25;;;;;;;2.87;1.67;;;;;;;20.36;57.38;100648.44;5026443;28;20287;-66
2022/07/03 03:04:08;;;;;;;3.10;1.50;;;;;;;20.37;57.79;100652.78;5032739;28;20632;-65
2022/07/03 03:06:38;;;;;;;3.10;1.90;;;;;;;20.35;58.24;100659.41;5029278;28;20220;-66
2022/07/03 03:09:14;;;;;;;2.20;1.53;;;;;;;20.32;58.26;100660.59;5030644;28;20227;-66
2022/07/03 03:11:44;;;;;;;5.90;1.67;;;;;;;20.33;58.30;100654.19;5025104;28;20861;-65
2022/07/03 03:14:14;;;;;;;3.37;1.60;;;;;;;20.22;58.59;100661.06;5032583;28;20583;-66
2022/07/03 03:16:47;;;;;;;3.87;1.70;;;;;;;20.20;59.19;100662.28;5033171;28;20913;-66
2022/07/03 03:19:16;;;;;;;3.60;1.87;;;;;;;20.17;58.73;100660.00;5033061;28;20209;-65
2022/07/03 03:22:00;;;;;;;3.43;1.30;;;;;;;20.18;58.98;100661.66;5031633;28;20238;-65
2022/07/03 03:24:31;;;;;;;2.53;1.60;;;;;;;20.20;59.02;100665.81;5032305;28;20240;-65
2022/07/03 03:27:00;;;;;;;2.93;1.50;;;;;;;20.21;58.97;100677.41;5032902;28;20223;-65
2022/07/03 03:29:28;;;;;;;3.43;1.80;;;;;;;20.18;58.91;100664.34;5033071;28;20214;-65
2022/07/03 03:31:58;;;;;;;3.00;1.37;;;;;;;20.13;59.18;100674.91;5033001;28;20600;-65
2022/07/03 03:34:31;;;;;;;3.23;1.60;;;;;;;20.04;59.57;100676.16;5032616;28;20263;-66
2022/07/03 03:37:00;;;;;;;5.90;1.70;;;;;;;20.01;59.16;100680.06;5032524;28;20755;-65
2022/07/03 03:39:28;;;;;;;4.57;1.67;;;;;;;20.06;59.36;100684.81;5032772;28;20240;-65
2022/07/03 03:41:56;;;;;;;2.70;1.70;;;;;;;20.04;59.46;100681.53;5032799;28;20669;-65
2022/07/03 03:44:25;;;;;;;2.30;1.40;;;;;;;20.07;59.37;100681.94;5026467;28;20208;-66
2022/07/03 03:46:53;;;;;;;5.17;2.20;;;;;;;20.10;59.63;100686.91;5032399;28;20682;-66
2022/07/03 03:49:22;;;;;;;5.67;1.97;;;;;;;20.13;59.22;100691.91;5032659;28;20245;-65
2022/07/03 03:51:51;;;;;;;3.27;1.37;;;;;;;20.15;58.95;100691.66;5032098;28;20215;-65
2022/07/03 03:54:18;;;;;;;3.93;1.83;;;;;;;20.15;58.79;100689.81;5035755;28;20215;-66
2022/07/03 03:56:46;;;;;;;2.43;1.60;;;;;;;20.14;58.55;100698.91;5032005;28;20251;-66
2022/07/03 03:59:14;;;;;;;2.87;1.60;;;;;;;20.14;59.04;100700.81;5032544;28;20251;-67
2022/07/03 04:01:42;;;;;;;3.10;1.70;;;;;;;20.17;58.73;100708.44;5030839;28;20216;-66
2022/07/03 04:04:12;;;;;;;6.37;1.80;;;;;;;20.13;58.53;100712.59;5025771;28;20217;-67
2022/07/03 04:06:41;;;;;;;3.33;1.80;;;;;;;20.16;58.70;100709.47;5032530;28;20216;-66
2022/07/03 04:09:09;;;;;;;2.60;1.70;;;;;;;20.18;58.54;100715.50;5031699;28;20212;-66
2022/07/03 04:11:36;;;;;;;3.30;2.03;;;;;;;20.20;58.68;100711.56;5032073;28;20680;-66
2022/07/03 04:14:04;;;;;;;5.17;1.87;;;;;;;20.20;58.61;100713.44;5031488;28;20209;-66
2022/07/03 04:16:34;;;;;;;4.97;1.70;;;;;;;20.14;58.41;100709.69;5031521;28;20235;-65
2022/07/03 04:19:02;;;;;;;4.17;1.87;;;;;;;20.13;58.83;100712.59;5031659;28;20204;-65
2022/07/03 04:21:30;;;;;;;4.03;1.53;;;;;;;20.14;58.77;100715.06;5018406;28;20209;-65
2022/07/03 04:23:59;;;;;;;3.10;1.90;;;;;;;20.17;58.54;100703.91;5031448;28;20749;-65
2022/07/03 04:26:26;;;;;;;3.77;1.60;;;;;;;20.18;58.52;100708.25;5031758;28;20287;-65
2022/07/03 04:28:54;;;;;;;3.47;1.63;;;;;;;20.19;59.03;100706.38;5031889;28;20219;-66
2022/07/03 04:31:22;;;;;;;3.27;1.73;;;;;;;20.19;59.36;100709.09;5031412;28;20259;-66
2022/07/03 04:33:50;;;;;;;5.53;2.10;;;;;;;20.20;59.26;100708.88;5031516;28;20205;-66
2022/07/03 04:36:18;;;;;;;7.50;1.77;;;;;;;20.23;58.99;100707.63;5031676;28;20834;-66
2022/07/03 04:38:46;;;;;;;2.70;1.67;;;;;;;20.25;59.27;100713.63;5031836;28;20200;-67
2022/07/03 04:41:15;;;;;;;5.03;1.80;;;;;;;20.29;59.22;100718.44;5031473;28;20242;-66
2022/07/03 04:43:43;;;;;;;3.57;1.90;;;;;;;20.33;59.44;100718.81;5030874;28;20209;-67
2022/07/03 04:46:10;;;;;;;3.43;2.13;;;;;;;20.35;59.34;100711.41;5031821;28;20608;-66
2022/07/03 04:48:39;;;;;;;3.07;1.70;;;;;;;20.41;59.11;100715.97;5028978;28;20213;-65
2022/07/03 04:51:07;;;;;;;9.13;2.10;;;;;;;20.44;59.19;100726.34;5030001;28;20592;-67
2022/07/03 04:53:35;;;;;;;6.07;2.30;;;;;;;20.46;58.89;100723.44;5030312;28;20239;-65
2022/07/03 04:56:03;;;;;;;6.47;2.00;;;;;;;20.43;59.35;100718.44;5031123;28;20323;-66
2022/07/03 04:58:32;;;;;;;4.60;2.07;;;;;;;20.45;59.22;100722.59;5030621;28;20255;-65
2022/07/03 05:00:59;;;;;;;7.87;2.23;;;;;;;20.48;59.55;100727.59;5036711;28;20239;-65
2022/07/03 05:03:28;;;;;;;3.77;2.10;;;;;;;20.50;59.56;100725.50;5039163;28;20213;-66
2022/07/03 05:05:55;;;;;;;4.03;1.80;;;;;;;20.55;60.00;100723.03;5027075;28;20213;-66
2022/07/03 05:08:23;;;;;;;2.90;1.90;;;;;;;20.61;59.82;100716.81;5023914;28;20205;-66
2022/07/03 05:10:51;;;;;;;8.23;2.63;;;;;;;20.58;60.08;100714.50;5031055;28;20308;-65
2022/07/03 05:13:19;;;;;;;2.93;2.27;;;;;;;20.64;60.22;100716.41;5030824;28;20217;-65
2022/07/03 05:15:48;;;;;;;9.40;2.50;;;;;;;20.65;60.62;100717.22;5034426;28;20204;-65
2022/07/03 05:18:15;;;;;;;6.33;3.00;;;;;;;20.67;60.48;100715.13;5026658;28;20232;-65
2022/07/03 05:20:48;;;;;;;5.83;3.23;;;;;;;20.76;60.86;100724.66;5031036;28;20208;-66
2022/07/03 05:23:16;;;;;;;6.47;4.03;;;;;;;20.82;60.55;100720.31;5030817;28;20295;-65
2022/07/03 05:25:43;;;;;;;8.47;3.43;;;;;;;20.81;60.99;100724.06;5031015;28;20244;-66
2022/07/03 05:28:11;;;;;;;9.57;3.80;;;;;;;20.82;60.71;100720.31;5026895;28;20577;-67
2022/07/03 05:30:39;;;;;;;6.87;3.23;;;;;;;20.86;61.08;100725.06;5025747;28;20217;-66
2022/07/03 05:33:08;;;;;;;8.03;2.33;;;;;;;20.96;60.69;100722.78;5022953;28;20259;-67
2022/07/03 05:35:36;;;;;;;5.90;2.70;;;;;;;21.01;60.16;100727.56;5031211;28;20209;-67
2022/07/03 05:38:04;;;;;;;10.37;2.90;;;;;;;21.08;59.98;100728.38;5023145;28;20327;-67
2022/07/03 05:40:30;;;;;;;3.87;2.33;;;;;;;21.08;60.06;100739.16;5027873;28;20208;-66
2022/07/03 05:42:58;;;;;;;5.17;2.57;;;;;;;21.11;60.37;100746.81;5030102;28;20686;-67
2022/07/03 05:45:26;;;;;;;6.90;2.40;;;;;;;21.14;60.43;100742.88;5031141;28;20705;-66
2022/07/03 05:47:54;;;;;;;7.23;2.70;;;;;;;21.19;60.16;100743.94;5031052;28;20211;-66
2022/07/03 05:50:23;;;;;;;5.83;2.83;;;;;;;21.20;60.34;100736.66;5030335;28;20575;-65
2022/07/03 05:52:51;;;;;;;4.57;2.30;;;;;;;21.24;60.67;100738.75;5029845;28;20212;-65
2022/07/03 05:55:19;;;;;;;6.73;3.00;;;;;;;21.27;60.84;100742.88;5030352;28;20213;-65
2022/07/03 05:57:47;;;;;;;7.27;2.80;;;;;;;21.27;60.32;100743.72;5013553;28;20574;-65
2022/07/03 06:00:15;;;;;;;4.73;2.70;;;;;;;21.36;60.32;100745.16;5021238;28;20699;-65
2022/07/03 06:02:42;;;;;;;3.77;2.53;;;;;;;21.42;59.98;100742.63;5017830;28;20201;-65
2022/07/03 06:05:10;;;;;;;6.97;2.80;;;;;;;21.43;59.64;100744.28;5019264;28;20713;-65
2022/07/03 06:07:39;;;;;;;4.87;2.47;;;;;;;21.51;59.18;100744.06;5010364;28;20296;-66
2022/07/03 06:10:08;;;;;;;8.17;2.67;;;;;;;21.59;59.28;100754.59;5011148;28;20255;-65
2022/07/03 06:12:36;;;;;;;6.00;2.37;;;;;;;21.66;58.90;100747.31;5009492;28;20202;-65
2022/07/03 06:15:05;;;;;;;4.27;2.30;;;;;;;21.72;58.36;100751.88;5011076;28;20317;-66
2022/07/03 06:17:35;;;;;;;3.70;1.93;;;;;;;21.80;58.04;100751.63;5010456;28;20221;-66
2022/07/03 06:20:04;;;;;;;5.50;1.90;;;;;;;21.82;56.98;100740.59;5010218;28;20310;-65
2022/07/03 06:22:31;;;;;;;4.20;1.70;;;;;;;21.79;56.86;100741.88;5009842;28;20590;-66
2022/07/03 06:25:00;;;;;;;6.03;1.83;;;;;;;21.80;56.53;100738.13;5016590;28;20240;-64
2022/07/03 06:27:28;;;;;;;6.03;2.40;;;;;;;21.81;57.39;100744.38;5010085;28;20289;-67
2022/07/03 06:29:56;;;;;;;7.60;2.07;;;;;;;21.89;57.61;100746.81;5013862;28;20213;-66
2022/07/03 06:32:24;;;;;;;7.53;2.50;;;;;;;22.00;57.73;100744.28;5013624;28;20239;-66
2022/07/03 06:34:52;;;;;;;5.33;2.23;;;;;;;22.06;57.98;100753.41;5014238;28;20202;-64
2022/07/03 06:37:19;;;;;;;7.50;2.20;;;;;;;22.15;57.53;100749.41;5014047;28;20296;-66
2022/07/03 06:39:47;;;;;;;5.67;2.23;;;;;;;22.24;57.96;100744.56;5014360;28;20213;-66
2022/07/03 06:42:16;;;;;;;5.57;2.23;;;;;;;22.35;57.45;100746.53;5008066;28;20966;-66
2022/07/03 06:44:45;;;;;;;5.80;2.10;;;;;;;22.29;56.52;100742.84;5010379;28;20297;-66
2022/07/03 06:47:19;;;;;;;3.60;2.37;;;;;;;22.30;57.13;100746.38;5023542;28;20271;-65
2022/07/03 06:49:46;;;;;;;6.00;2.40;;;;;;;22.30;57.90;100740.97;5018541;28;20268;-65
2022/07/03 06:52:14;;;;;;;3.43;1.90;;;;;;;22.37;58.14;100749.88;5024857;28;20255;-65
2022/07/03 06:54:43;;;;;;;4.10;2.00;;;;;;;22.47;57.87;100744.81;5020499;28;20665;-65
2022/07/03 06:57:11;;;;;;;7.87;1.97;;;;;;;22.56;57.94;100748.91;5015169;28;20248;-65
2022/07/03 06:59:41;;;;;;;3.57;1.90;;;;;;;22.65;57.96;100750.28;5033533;28;20674;-65
2022/07/03 07:02:11;;;;;;;5.27;2.23;;;;;;;22.72;57.14;100748.34;5033456;28;20275;-64
2022/07/03 07:04:38;;;;;;;4.47;2.03;;;;;;;22.74;55.80;100749.00;5033258;28;20213;-65
2022/07/03 07:07:06;;;;;;;4.30;2.10;;;;;;;22.73;55.53;100747.31;5033523;28;20205;-65
2022/07/03 07:09:34;;;;;;;7.13;2.00;;;;;;;22.72;55.36;100748.34;5033050;28;20203;-65
2022/07/03 07:12:02;;;;;;;3.20;1.90;;;;;;;22.76;55.54;100749.59;5033349;28;20258;-65
2022/07/03 07:14:29;;;;;;;6.33;2.03;;;;;;;22.85;55.37;100752.84;5032437;28;20240;-65
2022/07/03 07:16:58;;;;;;;3.97;1.80;;;;;;;22.90;55.20;100744.88;5033426;28;20208;-65
2022/07/03 07:19:26;;;;;;;3.63;1.87;;;;;;;22.99;54.88;100746.25;5033072;28;20236;-65
2022/07/03 07:21:54;;;;;;;3.90;1.93;;;;;;;23.07;54.37;100751.38;5033011;28;20666;-65
2022/07/03 07:24:22;;;;;;;2.57;1.77;;;;;;;23.15;54.43;100752.97;5032636;28;20300;-65
2022/07/03 07:26:50;;;;;;;4.77;1.60;;;;;;;23.22;53.37;100751.84;5028277;28;20300;-65
2022/07/03 07:29:17;;;;;;;3.57;1.70;;;;;;;23.28;53.45;100750.13;5029510;28;20207;-65
2022/07/03 07:31:45;;;;;;;3.07;1.77;;;;;;;23.35;53.07;100747.34;5032556;28;20231;-65
2022/07/03 07:34:14;;;;;;;13.37;2.10;;;;;;;23.42;52.95;100751.63;5032302;28;20709;-65
2022/07/03 07:36:42;;;;;;;3.87;1.83;;;;;;;23.47;53.47;100750.97;5031771;28;20251;-65
2022/07/03 07:39:10;;;;;;;3.72;1.83;;;;;;;23.47;52.56;100748.28;5032937;28;20224;-66
2022/07/03 07:41:39;;;;;;;4.27;1.93;;;;;;;23.52;52.64;100748.44;5032386;28;20232;-66
2022/07/03 07:44:07;;;;;;;4.57;2.03;;;;;;;23.63;52.31;100743.09;5022908;28;20209;-65
2022/07/03 07:46:35;;;;;;;2.97;1.90;;;;;;;23.68;52.78;100747.00;5031529;28;20217;-65
2022/07/03 07:49:02;;;;;;;4.13;2.10;;;;;;;23.75;52.12;100745.06;5031768;28;20201;-65
2022/07/03 07:51:31;;;;;;;3.45;1.90;;;;;;;23.82;52.06;100748.50;5032627;28;20223;-65
2022/07/03 07:53:59;;;;;;;4.45;2.33;;;;;;;23.89;52.20;100750.06;5032127;28;20547;-65
2022/07/03 07:56:27;;;;;;;3.25;1.85;;;;;;;23.99;51.30;100739.50;5022690;28;20320;-65
2022/07/03 07:58:55;;;;;;;5.57;2.50;;;;;;;24.05;51.31;100743.16;5002301;28;20237;-65
2022/07/03 08:06:54;;;;;;;7.82;3.13;;;;;;;24.26;50.20;100750.00;5012097;28;20205;-65
2022/07/03 08:09:22;;;;;;;7.78;2.25;;;;;;;24.35;50.30;100744.03;5012216;28;20201;-65
2022/07/03 08:11:50;;;;;;;5.22;3.17;;;;;;;24.38;51.21;100742.72;5012455;28;20214;-65
2022/07/03 08:14:18;;;;;;;8.77;4.50;;;;;;;24.49;50.45;100743.78;5011218;28;20789;-65
2022/07/03 08:16:46;;;;;;;9.57;3.13;;;;;;;24.58;50.11;100740.50;5012173;28;20209;-64
2022/07/03 08:19:14;;;;;;;3.42;2.20;;;;;;;24.66;50.36;100744.78;5011887;28;20867;-65
2022/07/03 08:21:42;;;;;;;4.18;2.28;;;;;;;24.83;49.91;100743.00;5011758;28;20263;-65
2022/07/03 08:24:12;;;;;;;5.53;2.53;;;;;;;24.88;49.93;100737.72;5011481;28;20224;-65
2022/07/03 08:26:40;;;;;;;3.10;1.90;;;;;;;24.97;49.78;100732.81;5008956;28;20212;-65
2022/07/03 08:29:08;;;;;;;5.60;2.38;;;;;;;25.08;49.64;100742.81;5009860;28;20204;-65
2022/07/03 08:31:36;;;;;;;6.03;2.08;;;;;;;25.13;48.73;100744.81;5012043;28;20496;-66
2022/07/03 08:34:04;;;;;;;4.07;1.90;;;;;;;25.23;47.57;100735.03;5010833;28;20210;-65
2022/07/03 08:36:32;;;;;;;7.50;1.83;;;;;;;25.28;47.84;100737.00;5011649;28;20232;-66
2022/07/03 08:39:00;;;;;;;4.53;2.00;;;;;;;25.33;48.68;100737.13;5011557;28;20236;-66
2022/07/03 08:41:31;;;;;;;4.93;1.70;;;;;;;25.45;48.35;100738.75;5011139;28;20235;-66
2022/07/03 08:44:00;;;;;;;4.18;1.90;;;;;;;25.51;49.22;100736.97;5008277;28;20205;-66
2022/07/03 08:46:32;;;;;;;4.47;1.70;;;;;;;25.62;49.44;100729.88;5010697;28;20645;-66
2022/07/03 08:49:01;;;;;;;5.20;1.55;;;;;;;25.73;48.61;100732.56;5004398;28;20198;-65
2022/07/03 08:51:30;;;;;;;4.88;1.92;;;;;;;25.74;48.11;100731.50;5011161;28;20279;-65
2022/07/03 08:54:02;;;;;;;2.50;1.55;;;;;;;25.81;47.35;100721.31;5010557;28;20206;-65
2022/07/03 08:56:32;;;;;;;4.15;1.73;;;;;;;26.01;45.86;100726.31;5010929;28;20241;-67
2022/07/03 08:59:03;;;;;;;2.78;1.70;;;;;;;26.12;45.02;100721.91;5011492;28;20294;-66
2022/07/03 09:01:32;;;;;;;4.53;1.48;;;;;;;26.27;44.07;100716.75;5017514;28;20659;-66
2022/07/03 09:04:02;;;;;;;7.82;1.42;;;;;;;26.31;43.55;100723.34;5010661;28;20224;-66
2022/07/03 09:06:33;;;;;;;2.42;1.10;;;;;;;26.41;44.60;100723.53;5011265;28;20212;-66
2022/07/03 09:09:03;;;;;;;3.70;1.27;;;;;;;26.51;43.97;100715.53;5011061;28;20602;-66
2022/07/03 09:11:32;;;;;;;4.93;1.38;;;;;;;26.44;44.57;100720.31;5011027;28;20345;-65
2022/07/03 09:14:00;;;;;;;4.45;2.28;;;;;;;26.58;43.63;100716.19;5006826;28;20201;-65
2022/07/03 09:16:28;;;;;;;2.97;1.58;;;;;;;26.69;43.85;100714.47;5010450;28;20209;-66
2022/07/03 09:18:55;;;;;;;4.32;1.20;;;;;;;26.77;43.92;100718.66;5010550;28;20324;-65
2022/07/03 09:21:36;;;;;;;4.07;1.10;;;;;;;26.92;42.36;100706.13;5010970;28;20206;-65
2022/07/03 09:24:05;;;;;;;3.83;1.10;;;;;;;26.99;43.39;100707.88;5010279;28;20654;-65
2022/07/03 09:26:35;;;;;;;11.43;5.07;;;;;;;27.01;43.76;100711.97;5008831;28;20694;-65
2022/07/03 09:29:03;;;;;;;3.47;1.23;;;;;;;27.03;40.90;100709.00;5003227;28;20201;-65
2022/07/03 09:31:32;;;;;;;4.72;2.17;;;;;;;27.13;40.10;100711.88;5010803;28;20316;-65
2022/07/03 09:34:01;;;;;;;4.35;0.70;;;;;;;27.19;40.16;100716.31;5010307;28;20229;-65
2022/07/03 09:36:43;;;;;;;3.17;0.98;;;;;;;27.33;37.65;100710.25;5010421;28;20703;-66
2022/07/03 09:39:16;;;;;;;4.70;0.85;;;;;;;27.34;37.77;100716.53;5010146;28;20237;-65
2022/07/03 09:41:59;;;;;;;1.92;1.23;;;;;;;27.41;37.54;100708.16;5009072;28;20217;-65
2022/07/03 09:44:36;;;;;;;4.65;1.05;;;;;;;27.48;36.50;100704.16;5003453;28;20240;-65
2022/07/03 09:47:15;;;;;;;3.17;0.98;;;;;;;27.57;37.49;100712.75;5010548;28;20284;-65
2022/07/03 09:49:52;;;;;;;1.73;0.88;;;;;;;27.61;37.26;100703.81;5010324;28;20217;-65
2022/07/03 09:52:31;;;;;;;1.60;0.60;;;;;;;27.69;37.68;100705.28;5009912;28;20589;-65
2022/07/03 09:55:01;;;;;;;4.75;0.90;;;;;;;27.71;37.85;100703.09;5010232;28;20307;-65
2022/07/03 09:57:30;;;;;;;1.50;0.70;;;;;;;27.87;37.22;100704.94;5027382;28;20230;-65
2022/07/03 10:00:13;;;;;;;1.65;0.90;;;;;;;27.86;36.73;100700.56;5029854;28;20234;-65
2022/07/03 10:02:58;;;;;;;2.35;0.90;;;;;;;27.95;36.51;100704.47;5030634;28;20300;-65
2022/07/03 10:05:28;;;;;;;8.05;3.55;;;;;;;28.06;36.44;100692.56;5033467;28;20218;-65
2022/07/03 10:07:57;;;;;;;6.60;2.10;;;;;;;28.24;36.47;100705.03;5016652;28;20220;-65
2022/07/03 10:10:29;;;;;;;5.40;1.33;;;;;;;28.38;36.71;100699.97;5031362;28;20213;-66
2022/07/03 10:12:59;;;;;;;8.63;3.40;;;;;;;28.39;36.34;100693.44;5028929;28;20658;-66
2022/07/03 10:15:30;;;;;;;3.33;1.23;;;;;;;28.52;35.20;100697.63;5029991;28;20213;-66
2022/07/03 10:17:59;;;;;;;6.05;1.55;;;;;;;28.63;35.65;100704.81;5015992;28;20205;-67
2022/07/03 10:20:29;;;;;;;5.45;2.58;;;;;;;28.65;35.46;100714.38;5029588;28;20228;-66
2022/07/03 10:22:57;;;;;;;8.52;1.38;;;;;;;28.66;34.17;100705.13;5029330;28;20684;-66
2022/07/03 10:25:25;;;;;;;1.67;0.80;;;;;;;28.75;34.52;100695.38;5029849;28;20225;-66
2022/07/03 10:27:53;;;;;;;2.05;1.20;;;;;;;28.86;34.25;100709.06;5029975;28;20798;-66
2022/07/03 10:30:23;;;;;;;2.53;1.30;;;;;;;28.78;32.77;100696.75;5029983;28;20574;-66
2022/07/03 10:32:53;;;;;;;5.72;1.10;;;;;;;28.86;33.60;100695.44;5029185;28;20221;-66
2022/07/03 10:35:22;;;;;;;1.85;0.60;;;;;;;28.86;34.21;100688.06;5029277;28;20217;-66
2022/07/03 10:38:04;;;;;;;3.33;1.48;;;;;;;28.92;33.79;100680.75;5029535;28;20217;-66
2022/07/03 10:46:22;;;;;;;1.13;0.60;;;;;;;28.66;33.49;100696.09;5023862;28;20208;-66
2022/07/03 10:49:05;;;;;;;5.00;0.90;;;;;;;28.74;33.31;100696.44;5017144;28;20235;-66
2022/07/03 10:51:53;;;;;;;5.18;0.98;;;;;;;28.97;33.41;100697.16;5029506;28;20205;-66
2022/07/03 10:54:22;;;;;;;1.95;0.90;;;;;;;29.05;33.40;100699.38;5029112;28;20662;-67
2022/07/03 10:57:10;;;;;;;2.70;0.85;;;;;;;29.24;33.19;100700.56;5029074;28;20900;-66
2022/07/03 11:00:01;;;;;;;3.90;1.00;;;;;;;29.32;32.99;100700.06;5021697;28;20635;-66
2022/07/03 11:02:34;;;;;;;2.45;1.10;;;;;;;29.40;33.09;100688.66;5026770;28;20629;-66
2022/07/03 11:05:12;;;;;;;2.13;0.82;;;;;;;29.53;33.32;100699.09;5028996;28;20243;-66
2022/07/03 11:07:45;;;;;;;2.65;1.20;;;;;;;29.59;32.93;100677.25;5029042;28;20204;-66
2022/07/03 11:10:32;;;;;;;1.17;0.77;;;;;;;29.82;30.91;100672.09;5029410;28;20209;-66
2022/07/03 11:13:03;;;;;;;3.40;1.20;;;;;;;29.62;32.49;100679.44;5016930;28;20201;-64
2022/07/03 11:15:32;;;;;;;3.95;1.25;;;;;;;29.67;32.01;100671.25;5032878;28;20212;-65
2022/07/03 11:18:17;;;;;;;3.65;1.40;;;;;;;29.71;32.05;100672.38;5029612;28;20240;-65
2022/07/03 11:21:23;;;;;;;1.52;0.70;;;;;;;29.77;32.82;100665.81;5034008;28;20693;-65
2022/07/03 11:24:36;;;;;;;11.13;0.98;;;;;;;29.93;32.55;100662.84;5030886;28;20212;-65
2022/07/03 11:27:24;;;;;;;4.07;1.40;;;;;;;30.02;32.87;100652.22;4983758;28;20204;-65
2022/07/03 11:29:57;;;;;;;3.20;0.90;;;;;;;30.17;32.45;100645.94;5032470;28;20232;-65
2022/07/03 11:32:44;;;;;;;3.38;1.60;;;;;;;30.08;32.06;100651.13;5030496;28;20710;-65
2022/07/03 11:35:47;;;;;;;7.18;1.13;;;;;;;30.26;31.84;100642.38;5020048;28;20213;-65
2022/07/03 11:38:17;;;;;;;2.72;0.98;;;;;;;30.31;32.22;100644.28;5031844;28;20213;-65
2022/07/03 11:40:48;;;;;;;3.80;1.40;;;;;;;30.40;33.08;100636.34;5032357;28;20308;-65
2022/07/03 11:43:16;;;;;;;3.85;1.20;;;;;;;30.33;31.62;100642.09;5031732;28;20216;-65
2022/07/03 11:45:44;;;;;;;4.53;2.00;;;;;;;30.33;31.87;100624.88;5032587;28;20212;-65
2022/07/03 11:48:15;;;;;;;5.93;1.90;;;;;;;30.34;32.12;100634.72;5032018;28;20615;-65
2022/07/03 11:50:45;;;;;;;4.28;1.42;;;;;;;30.29;31.22;100639.09;5032554;28;20212;-65
2022/07/03 11:53:28;;;;;;;1.95;1.10;;;;;;;30.36;31.71;100629.78;5031541;28;20224;-67